createdAt,value
2023-03-21T00:00:06.013Z,101784.19
2023-03-21T00:02:33.942Z,101782.34
2023-03-21T00:05:13.450Z,101783.31
2023-03-21T00:07:44.519Z,101786.69
2023-03-21T00:10:18.148Z,101794.78
2023-03-21T00:12:58.466Z,101792.00
2023-03-21T00:15:39.309Z,101787.47
2023-03-21T00:18:11.396Z,101794.78
2023-03-21T00:20:39.356Z,101794.69
2023-03-21T00:23:08.661Z,101795.56
2023-03-21T00:25:36.899Z,101787.75
2023-03-21T00:28:08.351Z,101791.91
2023-03-21T00:30:36.473Z,101792.88
2023-03-21T00:33:19.674Z,101789.22
2023-03-21T00:36:01.841Z,101786.53
2023-03-21T00:38:32.416Z,101789.22
2023-03-21T00:41:04.757Z,101788.16
2023-03-21T00:43:35.596Z,101784.00
2023-03-21T00:46:03.607Z,101782.78
2023-03-21T00:48:31.601Z,101781.97
2023-03-21T00:51:00.573Z,101788.25
2023-03-21T00:53:28.983Z,101780.16
2023-03-21T00:55:58.621Z,101782.94
2023-03-21T00:58:26.504Z,101786.53
2023-03-21T01:00:54.824Z,101788.94
2023-03-21T01:03:26.611Z,101789.88
2023-03-21T01:06:04.189Z,101787.88
2023-03-21T01:08:44.581Z,101784.31
2023-03-21T01:11:22.781Z,101782.56
2023-03-21T01:14:10.763Z,101781.72
2023-03-21T01:16:39.126Z,101787.00
2023-03-21T01:19:14.892Z,101785.97
2023-03-21T01:21:50.308Z,101787.78
2023-03-21T01:24:18.273Z,101785.88
2023-03-21T01:26:47.534Z,101792.22
2023-03-21T01:29:15.509Z,101782.97
2023-03-21T01:31:43.550Z,101780.38
2023-03-21T01:34:11.525Z,101783.09
2023-03-21T01:36:39.540Z,101782.13
2023-03-21T01:39:07.718Z,101782.22
2023-03-21T01:41:45.156Z,101784.03
2023-03-21T01:44:18.747Z,101785.78
2023-03-21T01:47:14.114Z,101783.19
2023-03-21T01:49:40.183Z,101786.72
2023-03-21T01:52:15.144Z,101793.00
2023-03-21T01:54:46.342Z,101788.38
2023-03-21T01:57:18.475Z,101795.63
2023-03-21T01:59:50.125Z,101795.63
2023-03-21T02:02:20.909Z,101788.31
2023-03-21T02:04:51.108Z,101787.25
2023-03-21T02:07:24.353Z,101791.66
2023-03-21T02:09:53.522Z,101798.91
2023-03-21T02:12:21.576Z,101789.06
2023-03-21T02:14:51.353Z,101783.78
2023-03-21T02:17:27.110Z,101792.81
2023-03-21T02:20:28.566Z,101789.84
2023-03-21T02:23:36.282Z,101786.09
2023-03-21T02:26:42.144Z,101786.25
2023-03-21T02:29:20.003Z,101786.19
2023-03-21T02:31:52.464Z,101779.03
2023-03-21T02:34:41.410Z,101779.75
2023-03-21T02:37:36.683Z,101790.59
2023-03-21T02:40:11.317Z,101789.66
2023-03-21T02:42:51.674Z,101789.59
2023-03-21T02:45:28.194Z,101777.81
2023-03-21T02:47:58.898Z,101786.09
2023-03-21T02:50:31.037Z,101785.22
2023-03-21T02:53:01.376Z,101777.13
2023-03-21T02:55:32.374Z,101776.16
2023-03-21T02:58:10.408Z,101769.81
2023-03-21T03:00:40.434Z,101774.06
2023-03-21T03:03:12.568Z,101776.94
2023-03-21T03:05:45.346Z,101777.03
2023-03-21T03:08:35.756Z,101771.53
2023-03-21T03:11:17.097Z,101776.75
2023-03-21T03:13:58.169Z,101780.44
2023-03-21T03:16:30.207Z,101787.56
2023-03-21T03:19:00.066Z,101776.88
2023-03-21T03:21:32.884Z,101780.31
2023-03-21T03:24:03.940Z,101776.75
2023-03-21T03:26:34.751Z,101777.34
2023-03-21T03:29:05.474Z,101776.41
2023-03-21T03:31:36.412Z,101782.84
2023-03-21T03:34:08.388Z,101775.81
2023-03-21T03:36:39.096Z,101782.06
2023-03-21T03:39:10.539Z,101787.47
2023-03-21T03:42:07.805Z,101792.00
2023-03-21T03:44:32.129Z,101791.72
2023-03-21T03:47:01.988Z,101787.38
2023-03-21T03:49:33.746Z,101790.84
2023-03-21T03:52:05.440Z,101799.97
2023-03-21T03:54:38.460Z,101793.63
2023-03-21T03:57:07.252Z,101803.56
2023-03-21T03:59:35.599Z,101792.00
2023-03-21T04:02:04.093Z,101801.63
2023-03-21T04:04:32.086Z,101789.00
2023-03-21T04:07:00.174Z,101796.22
2023-03-21T04:09:42.776Z,101796.34
2023-03-21T04:12:12.878Z,101800.75
2023-03-21T04:14:45.707Z,101792.59
2023-03-21T04:17:15.344Z,101794.28
2023-03-21T04:19:43.650Z,101789.88
2023-03-21T04:22:12.377Z,101789.13
2023-03-21T04:24:40.352Z,101790.75
2023-03-21T04:27:08.263Z,101801.63
2023-03-21T04:29:37.540Z,101789.13
2023-03-21T04:32:06.307Z,101795.28
2023-03-21T04:34:40.294Z,101792.66
2023-03-21T04:37:11.274Z,101797.97
2023-03-21T04:39:39.411Z,101796.16
2023-03-21T04:42:07.360Z,101801.63
2023-03-21T04:44:35.522Z,101797.00
2023-03-21T04:47:05.078Z,101803.38
2023-03-21T04:49:32.955Z,101797.88
2023-03-21T04:52:00.932Z,101799.63
2023-03-21T04:54:28.861Z,101798.75
2023-03-21T04:56:56.783Z,101799.69
2023-03-21T04:59:24.760Z,101806.84
2023-03-21T05:01:53.133Z,101800.50
2023-03-21T05:04:22.444Z,101801.44
2023-03-21T05:06:50.383Z,101801.44
2023-03-21T05:09:18.370Z,101806.66
2023-03-21T05:11:46.340Z,101802.13
2023-03-21T05:14:17.771Z,101804.72
2023-03-21T05:16:53.261Z,101800.09
2023-03-21T05:19:23.849Z,101801.09
2023-03-21T05:21:51.796Z,101798.19
2023-03-21T05:24:21.264Z,101801.84
2023-03-21T05:26:52.418Z,101811.69
2023-03-21T05:29:21.762Z,101811.69
2023-03-21T05:31:49.701Z,101797.41
2023-03-21T05:34:17.619Z,101808.00
2023-03-21T05:36:46.923Z,101811.47
2023-03-21T05:39:14.810Z,101805.31
2023-03-21T05:41:42.721Z,101805.25
2023-03-21T05:44:10.802Z,101811.41
2023-03-21T05:46:38.811Z,101799.75
2023-03-21T05:49:06.702Z,101800.31
2023-03-21T05:51:34.626Z,101804.84
2023-03-21T05:54:03.898Z,101803.81
2023-03-21T05:56:31.791Z,101805.72
2023-03-21T05:58:59.732Z,101806.44
2023-03-21T06:01:27.750Z,101810.78
2023-03-21T06:03:55.723Z,101804.63
2023-03-21T06:06:23.672Z,101803.44
2023-03-21T06:08:51.568Z,101807.03
2023-03-21T06:11:28.327Z,101810.69
2023-03-21T06:13:56.219Z,101816.00
2023-03-21T06:16:24.335Z,101809.44
2023-03-21T06:18:52.245Z,101805.59
2023-03-21T06:21:20.735Z,101815.59
2023-03-21T06:23:51.631Z,101814.53
2023-03-21T06:26:23.033Z,101817.34
2023-03-21T06:28:52.713Z,101828.91
2023-03-21T06:31:22.657Z,101819.00
2023-03-21T06:33:51.718Z,101821.50
2023-03-21T06:36:20.047Z,101821.41
2023-03-21T06:38:48.718Z,101826.78
2023-03-21T06:41:17.207Z,101823.34
2023-03-21T06:43:45.336Z,101826.72
2023-03-21T06:46:14.657Z,101826.63
2023-03-21T06:48:44.579Z,101833.00
2023-03-21T06:51:13.622Z,101837.53
2023-03-21T06:53:42.190Z,101842.81
2023-03-21T06:56:10.897Z,101840.22
2023-03-21T06:58:38.825Z,101843.41
2023-03-21T07:01:08.216Z,101846.03
2023-03-21T07:03:37.912Z,101840.63
2023-03-21T07:06:07.217Z,101847.09
2023-03-21T07:08:35.337Z,101849.56
2023-03-21T07:11:03.358Z,101843.78
2023-03-21T07:13:31.905Z,101849.31
2023-03-21T07:16:00.075Z,101842.44
2023-03-21T07:18:28.163Z,101858.16
2023-03-21T07:20:57.462Z,101853.47
2023-03-21T07:23:26.605Z,101849.97
2023-03-21T07:25:55.438Z,101849.13
2023-03-21T07:28:23.854Z,101848.13
2023-03-21T07:30:56.320Z,101851.72
2023-03-21T07:33:24.726Z,101855.94
2023-03-21T07:35:53.129Z,101861.25
2023-03-21T07:38:22.760Z,101856.06
2023-03-21T07:40:50.956Z,101852.00
2023-03-21T07:45:51.951Z,101856.25
2023-03-21T07:48:19.961Z,101857.03
2023-03-21T07:50:47.857Z,101850.75
2023-03-21T07:53:15.779Z,101839.94
2023-03-21T07:55:45.095Z,101849.03
2023-03-21T07:58:13.001Z,101845.34
2023-03-21T08:00:41.016Z,101851.25
2023-03-21T08:03:09.049Z,101840.63
2023-03-21T08:05:39.020Z,101849.31
2023-03-21T08:08:07.405Z,101848.44
2023-03-21T08:10:36.095Z,101848.44
2023-03-21T08:13:05.622Z,101845.66
2023-03-21T08:15:33.520Z,101843.78
2023-03-21T08:18:01.586Z,101852.47
2023-03-21T08:20:29.703Z,101847.84
2023-03-21T08:22:57.660Z,101843.03
2023-03-21T08:25:25.939Z,101847.06
2023-03-21T08:27:53.864Z,101845.63
2023-03-21T08:30:25.935Z,101845.41
2023-03-21T08:33:00.632Z,101850.63
2023-03-21T08:35:28.780Z,101840.66
2023-03-21T08:37:57.028Z,101850.22
2023-03-21T08:40:24.945Z,101848.38
2023-03-21T08:42:52.869Z,101851.66
2023-03-21T08:45:21.085Z,101843.34
2023-03-21T08:47:50.372Z,101847.00
2023-03-21T08:50:19.805Z,101840.94
2023-03-21T08:52:47.879Z,101845.09
2023-03-21T08:55:17.014Z,101841.78
2023-03-21T08:57:45.187Z,101846.81
2023-03-21T09:00:15.342Z,101847.56
2023-03-21T09:02:43.580Z,101847.38
2023-03-21T09:05:13.681Z,101848.03
2023-03-21T09:07:42.551Z,101847.94
2023-03-21T09:10:21.856Z,101846.03
2023-03-21T09:12:50.858Z,101840.63
2023-03-21T09:15:21.845Z,101837.78
2023-03-21T09:17:52.541Z,101831.44
2023-03-21T09:20:30.647Z,101834.00
2023-03-21T09:22:59.757Z,101832.63
2023-03-21T09:25:29.552Z,101838.50
2023-03-21T09:27:58.189Z,101835.81
2023-03-21T09:30:26.723Z,101831.56
2023-03-21T09:32:55.822Z,101828.25
2023-03-21T09:35:27.119Z,101834.22
2023-03-21T09:37:57.548Z,101827.84
2023-03-21T09:40:40.123Z,101828.47
2023-03-21T09:43:11.494Z,101829.25
2023-03-21T09:45:44.717Z,101829.91
2023-03-21T09:48:20.139Z,101823.75
2023-03-21T09:50:50.613Z,101828.75
2023-03-21T09:53:23.465Z,101829.81
2023-03-21T09:55:52.029Z,101821.78
2023-03-21T09:58:27.199Z,101820.41
2023-03-21T10:01:01.227Z,101816.38
2023-03-21T10:03:35.070Z,101809.00
2023-03-21T10:06:11.382Z,101805.56
2023-03-21T10:08:41.942Z,101807.28
2023-03-21T10:11:14.701Z,101803.25
2023-03-21T10:13:44.767Z,101804.34
2023-03-21T10:16:16.547Z,101801.41
2023-03-21T10:18:46.830Z,101793.41
2023-03-21T10:21:43.387Z,101800.56
2023-03-21T10:24:13.087Z,101795.72
2023-03-21T10:26:41.624Z,101789.84
2023-03-21T10:29:11.620Z,101785.50
2023-03-21T10:31:40.025Z,101792.75
2023-03-21T10:34:15.223Z,101791.34
2023-03-21T10:36:44.532Z,101788.88
2023-03-21T10:39:21.814Z,101783.22
2023-03-21T10:41:52.174Z,101778.69
2023-03-21T10:44:21.475Z,101768.00
2023-03-21T10:46:53.920Z,101772.53
2023-03-21T10:49:26.480Z,101774.38
2023-03-21T10:51:58.448Z,101764.53
2023-03-21T10:54:30.351Z,101763.78
2023-03-21T10:56:59.758Z,101769.75
2023-03-21T10:59:29.261Z,101763.47
2023-03-21T11:01:57.903Z,101757.72
2023-03-21T11:04:28.016Z,101759.56
2023-03-21T11:06:59.759Z,101749.81
2023-03-21T11:09:43.864Z,101749.19
2023-03-21T11:12:13.065Z,101743.31
2023-03-21T11:14:43.003Z,101740.06
2023-03-21T11:17:25.079Z,101744.31
2023-03-21T11:19:55.265Z,101735.41
2023-03-21T11:22:27.071Z,101736.41
2023-03-21T11:24:59.664Z,101735.75
2023-03-21T11:27:29.459Z,101738.19
2023-03-21T11:29:59.862Z,101736.22
2023-03-21T11:32:34.275Z,101738.50
2023-03-21T11:35:03.435Z,101729.50
2023-03-21T11:37:36.063Z,101733.19
2023-03-21T11:40:14.806Z,101726.69
2023-03-21T11:42:44.978Z,101722.81
2023-03-21T11:45:15.343Z,101717.28
2023-03-21T11:47:43.689Z,101717.16
2023-03-21T11:50:20.038Z,101716.94
2023-03-21T11:52:56.355Z,101720.19
2023-03-21T11:55:37.870Z,101715.31
2023-03-21T11:58:23.931Z,101709.16
2023-03-21T12:00:57.235Z,101699.06
2023-03-21T12:03:48.297Z,101698.22
2023-03-21T12:06:22.709Z,101693.97
2023-03-21T12:09:01.370Z,101695.28
2023-03-21T12:11:32.874Z,101684.44
2023-03-21T12:14:05.947Z,101681.97
2023-03-21T12:16:43.435Z,101682.94
2023-03-21T12:19:35.602Z,101671.34
2023-03-21T12:22:08.712Z,101671.13
2023-03-21T12:24:42.005Z,101670.69
2023-03-21T12:27:13.375Z,101674.03
2023-03-21T12:29:53.902Z,101668.09
2023-03-21T12:32:38.642Z,101661.47
2023-03-21T12:35:16.760Z,101656.78
2023-03-21T12:37:55.028Z,101658.31
2023-03-21T12:40:36.954Z,101655.16
2023-03-21T12:43:19.529Z,101657.25
2023-03-21T12:45:50.268Z,101651.16
2023-03-21T12:48:22.440Z,101651.28
2023-03-21T12:50:51.538Z,101643.16
2023-03-21T12:53:35.736Z,101636.53
2023-03-21T12:56:09.124Z,101639.00
2023-03-21T12:58:43.885Z,101634.13
2023-03-21T13:01:12.448Z,101634.34
2023-03-21T13:03:43.949Z,101626.75
2023-03-21T13:06:14.875Z,101619.25
2023-03-21T13:08:46.290Z,101622.41
2023-03-21T13:11:17.852Z,101614.28
2023-03-21T13:13:51.668Z,101608.84
2023-03-21T13:16:21.969Z,101602.78
2023-03-21T13:18:56.463Z,101598.47
2023-03-21T13:21:35.576Z,101590.03
2023-03-21T13:24:07.249Z,101586.44
2023-03-21T13:26:39.882Z,101588.06
2023-03-21T13:29:24.578Z,101579.38
2023-03-21T13:31:56.943Z,101581.56
2023-03-21T13:34:25.632Z,101576.03
2023-03-21T13:36:54.033Z,101569.53
2023-03-21T13:39:26.376Z,101566.16
2023-03-21T13:41:56.565Z,101564.97
2023-03-21T13:44:26.939Z,101567.91
2023-03-21T13:46:56.562Z,101562.38
2023-03-21T13:49:31.554Z,101555.56
2023-03-21T13:52:00.830Z,101552.97
2023-03-21T13:54:31.840Z,101534.88
2023-03-21T13:57:02.032Z,101543.13
2023-03-21T13:59:41.412Z,101483.16
2023-03-21T14:02:33.722Z,101472.91
2023-03-21T14:05:06.406Z,101467.16
2023-03-21T14:07:36.711Z,101467.97
2023-03-21T14:10:08.754Z,101463.31
2023-03-21T14:12:40.046Z,101460.09
2023-03-21T14:15:16.332Z,101456.13
2023-03-21T14:17:52.164Z,101457.75
2023-03-21T14:20:22.323Z,101450.88
2023-03-21T14:22:50.679Z,101445.81
2023-03-21T14:25:20.074Z,101441.00
2023-03-21T14:27:52.709Z,101442.75
2023-03-21T14:30:26.228Z,101433.63
2023-03-21T14:32:56.037Z,101434.38
2023-03-21T14:35:24.244Z,101435.00
2023-03-21T14:37:52.937Z,101431.78
2023-03-21T14:40:24.074Z,101419.97
2023-03-21T14:42:53.840Z,101416.97
2023-03-21T14:45:24.059Z,101415.16
2023-03-21T14:48:33.495Z,101410.59
2023-03-21T14:51:04.314Z,101412.31
2023-03-21T14:53:33.960Z,101410.41
2023-03-21T14:56:03.965Z,101398.34
2023-03-21T14:58:34.021Z,101400.97
2023-03-21T15:01:04.220Z,101388.94
2023-03-21T15:03:32.697Z,101394.69
2023-03-21T15:06:04.741Z,101383.81
2023-03-21T15:08:32.705Z,101376.81
2023-03-21T15:11:07.252Z,101375.25
2023-03-21T15:13:38.716Z,101372.91
2023-03-21T15:16:07.444Z,101377.34
2023-03-21T15:18:37.375Z,101364.66
2023-03-21T15:21:08.235Z,101356.75
2023-03-21T15:23:38.494Z,101345.56
2023-03-21T15:26:07.305Z,101348.88
2023-03-21T15:28:37.567Z,101347.88
2023-03-21T15:31:06.169Z,101337.66
2023-03-21T15:33:34.592Z,101335.34
2023-03-21T15:36:02.509Z,101339.00
2023-03-21T15:38:34.901Z,101341.22
2023-03-21T15:41:26.015Z,101340.84
2023-03-21T15:44:03.172Z,101338.81
2023-03-21T15:46:39.986Z,101334.75
2023-03-21T15:49:09.420Z,101337.31
2023-03-21T15:51:37.442Z,101328.88
2023-03-21T15:54:06.356Z,101331.16
2023-03-21T15:56:36.137Z,101323.91
2023-03-21T15:59:06.554Z,101324.66
2023-03-21T16:01:38.997Z,101313.44
2023-03-21T16:04:09.220Z,101311.84
2023-03-21T16:06:39.535Z,101303.22
2023-03-21T16:09:12.198Z,101300.25
2023-03-21T16:11:41.866Z,101293.72
2023-03-21T16:14:11.248Z,101304.75
2023-03-21T16:16:39.604Z,101297.44
2023-03-21T16:19:08.330Z,101294.44
2023-03-21T16:21:38.331Z,101289.50
2023-03-21T16:24:08.723Z,101286.69
2023-03-21T16:26:40.227Z,101292.25
2023-03-21T16:29:08.395Z,101285.91
2023-03-21T16:31:38.166Z,101281.38
2023-03-21T16:34:07.187Z,101287.44
2023-03-21T16:36:39.688Z,101288.31
2023-03-21T16:39:17.891Z,101293.22
2023-03-21T16:41:46.304Z,101286.97
2023-03-21T16:44:14.224Z,101279.91
2023-03-21T16:46:43.530Z,101279.81
2023-03-21T16:49:19.321Z,101277.47
2023-03-21T16:51:47.417Z,101269.38
2023-03-21T16:54:15.445Z,101265.78
2023-03-21T16:56:45.614Z,101266.00
2023-03-21T16:59:13.902Z,101265.88
2023-03-21T17:01:46.202Z,101257.16
2023-03-21T17:04:16.753Z,101255.84
2023-03-21T17:06:46.254Z,101276.25
2023-03-21T17:09:16.029Z,101263.69
2023-03-21T17:11:44.336Z,101259.03
2023-03-21T17:14:13.470Z,101271.72
2023-03-21T17:16:43.398Z,101268.03
2023-03-21T17:19:14.189Z,101268.78
2023-03-21T17:21:42.140Z,101267.78
2023-03-21T17:24:10.176Z,101275.88
2023-03-21T17:26:38.504Z,101274.91
2023-03-21T17:29:07.329Z,101272.84
2023-03-21T17:31:38.115Z,101269.38
2023-03-21T17:34:10.832Z,101267.66
2023-03-21T17:36:40.840Z,101271.34
2023-03-21T17:39:10.632Z,101268.63
2023-03-21T17:41:38.542Z,101275.88
2023-03-21T17:44:06.854Z,101274.28
2023-03-21T17:46:37.232Z,101274.41
2023-03-21T17:49:07.801Z,101278.84
2023-03-21T17:51:35.819Z,101276.16
2023-03-21T17:54:05.030Z,101274.19
2023-03-21T17:56:34.463Z,101274.19
2023-03-21T17:59:05.874Z,101280.34
2023-03-21T18:01:36.090Z,101278.50
2023-03-21T18:04:05.064Z,101275.88
2023-03-21T18:06:35.195Z,101284.00
2023-03-21T18:09:07.176Z,101275.16
2023-03-21T18:11:35.348Z,101276.16
2023-03-21T18:14:15.278Z,101276.16
2023-03-21T18:16:44.337Z,101277.34
2023-03-21T18:19:12.933Z,101279.31
2023-03-21T18:21:45.291Z,101276.84
2023-03-21T18:24:14.020Z,101276.84
2023-03-21T18:26:42.262Z,101274.34
2023-03-21T18:30:13.175Z,101272.97
2023-03-21T18:32:06.964Z,101269.53
2023-03-21T18:34:36.363Z,101262.38
2023-03-21T18:37:07.518Z,101259.19
2023-03-21T18:39:35.699Z,101264.59
2023-03-21T18:42:05.463Z,101262.88
2023-03-21T18:44:37.974Z,101274.66
2023-03-21T18:47:06.764Z,101274.78
2023-03-21T18:52:24.364Z,101278.97
2023-03-21T18:54:53.268Z,101281.69
2023-03-21T18:57:38.652Z,101287.00
2023-03-21T19:00:13.021Z,101287.50
2023-03-21T19:02:46.004Z,101280.13
2023-03-21T19:05:16.220Z,101277.28
2023-03-21T19:07:45.706Z,101276.31
2023-03-21T19:10:19.293Z,101269.81
2023-03-21T19:12:47.876Z,101273.41
2023-03-21T19:15:18.769Z,101274.00
2023-03-21T19:18:26.499Z,101280.41
2023-03-21T19:20:35.044Z,101281.38
2023-03-21T19:23:06.078Z,101273.03
2023-03-21T19:25:34.051Z,101275.00
2023-03-21T19:28:01.934Z,101266.88
2023-03-21T19:30:29.894Z,101271.28
2023-03-21T19:32:57.785Z,101266.66
2023-03-21T19:35:25.778Z,101265.56
2023-03-21T19:37:53.709Z,101267.16
2023-03-21T19:40:23.873Z,101269.00
2023-03-21T19:42:52.774Z,101275.28
2023-03-21T19:45:20.811Z,101271.72
2023-03-21T19:47:48.787Z,101271.56
2023-03-21T19:53:04.869Z,101276.03
2023-03-21T19:55:34.165Z,101274.28
2023-03-21T19:58:02.155Z,101257.94
2023-03-21T20:00:30.234Z,101260.75
2023-03-21T20:02:58.245Z,101264.47
2023-03-21T20:05:26.300Z,101249.94
2023-03-21T20:07:57.310Z,101259.56
2023-03-21T20:10:27.477Z,101254.13
2023-03-21T20:12:56.945Z,101246.75
2023-03-21T20:15:28.410Z,101243.41
2023-03-21T20:17:57.900Z,101248.59
2023-03-21T20:20:26.151Z,101249.47
2023-03-21T20:23:11.245Z,101247.50
2023-03-21T20:25:40.963Z,101236.66
2023-03-21T20:28:17.139Z,101240.47
2023-03-21T20:30:49.346Z,101241.34
2023-03-21T20:33:17.753Z,101240.84
2023-03-21T20:36:35.570Z,101252.03
2023-03-21T20:38:34.512Z,101246.63
2023-03-21T20:41:03.774Z,101240.72
2023-03-21T20:46:21.477Z,101229.56
2023-03-21T20:48:49.807Z,101229.78
2023-03-21T20:52:29.431Z,101230.38
2023-03-21T20:54:06.062Z,101216.13
2023-03-21T20:56:34.615Z,101211.72
2023-03-21T20:59:16.827Z,101202.97
2023-03-21T21:01:48.742Z,101212.03
2023-03-21T21:04:20.110Z,101213.78
2023-03-21T21:06:48.569Z,101194.97
2023-03-21T21:09:16.695Z,101194.72
2023-03-21T21:14:35.590Z,101184.38
2023-03-21T21:17:21.066Z,101176.13
2023-03-21T21:19:51.378Z,101178.47
2023-03-21T21:22:19.306Z,101174.28
2023-03-21T21:24:47.214Z,101173.19
2023-03-21T21:27:15.190Z,101167.66
2023-03-21T21:29:47.778Z,101157.94
2023-03-21T21:32:17.048Z,101158.78
2023-03-21T21:34:44.996Z,101150.44
2023-03-21T21:37:12.898Z,101139.63
2023-03-21T21:39:42.036Z,101135.94
2023-03-21T21:42:10.020Z,101139.75
2023-03-21T21:44:39.985Z,101128.28
2023-03-21T21:47:09.366Z,101133.94
2023-03-21T21:49:37.791Z,101131.97
2023-03-21T21:52:05.908Z,101120.56
2023-03-21T21:54:35.149Z,101124.22
2023-03-21T21:57:03.051Z,101118.81
2023-03-21T21:59:31.206Z,101108.22
2023-03-21T22:02:00.677Z,101110.94
2023-03-21T22:04:30.179Z,101105.66
2023-03-21T22:06:58.074Z,101105.75
2023-03-21T22:09:26.117Z,101097.78
2023-03-21T22:11:55.415Z,101094.44
2023-03-21T22:14:23.373Z,101085.38
2023-03-21T22:16:51.824Z,101074.53
2023-03-21T22:19:19.697Z,101078.13
2023-03-21T22:21:49.007Z,101073.03
2023-03-21T22:24:17.139Z,101059.03
2023-03-21T22:26:45.174Z,101056.47
2023-03-21T22:29:13.181Z,101058.53
2023-03-21T22:31:41.951Z,101048.56
2023-03-21T22:34:09.944Z,101036.38
2023-03-21T22:36:37.876Z,101031.72
2023-03-21T22:39:07.355Z,101032.69
2023-03-21T22:41:35.462Z,101035.00
2023-03-21T22:44:03.409Z,101038.81
2023-03-21T22:46:31.280Z,101039.28
2023-03-21T22:48:59.201Z,101031.53
2023-03-21T22:51:27.114Z,101028.84
2023-03-21T22:53:55.221Z,101021.00
2023-03-21T22:56:24.511Z,101021.59
2023-03-21T22:58:52.571Z,101013.59
2023-03-21T23:01:20.507Z,101023.91
2023-03-21T23:03:48.409Z,101011.88
2023-03-21T23:06:16.359Z,101015.78
2023-03-21T23:08:44.302Z,101017.03
2023-03-21T23:11:13.116Z,101009.25
2023-03-21T23:13:42.475Z,101012.19
2023-03-21T23:16:10.620Z,101009.38
2023-03-21T23:18:38.686Z,101010.75
2023-03-21T23:21:13.168Z,100997.00
2023-03-21T23:23:43.852Z,101002.28
2023-03-21T23:26:12.488Z,101002.16
2023-03-21T23:28:40.584Z,100993.81
2023-03-21T23:31:11.612Z,100992.34
2023-03-21T23:33:39.590Z,100986.06
2023-03-21T23:36:08.630Z,100986.69
2023-03-21T23:38:36.650Z,100990.88
2023-03-21T23:41:07.925Z,100983.75
2023-03-21T23:43:35.918Z,100989.03
2023-03-21T23:46:04.056Z,100979.59
2023-03-21T23:48:33.486Z,100981.91
2023-03-21T23:51:01.594Z,100985.50
2023-03-21T23:53:29.495Z,100984.53
2023-03-21T23:55:58.709Z,100984.38
2023-03-21T23:58:27.872Z,100964.00
